Time;durP1;ratioP1;P1;durP2;ratioP2;P2;SDS_P1;SDS_P2;PMS_P1;PMS_P2;Temp;Humidity;BMP_temperature;BMP_pressure;BME280_temperature;BME280_humidity;BME280_pressure;Samples;Min_cycle;Max_cycle;Signal;HPM_P1;HPM_P2
2021/05/05 06:23:18;;;;;;;3.97;1.57;;;25.50;51.50;;;;;;5091847;23;20646;-88
2021/05/05 06:25:44;;;;;;;3.43;2.03;;;25.50;51.60;;;;;;4917573;29;20557;-89
2021/05/05 06:28:11;;;;;;;1.30;1.20;;;25.50;51.60;;;;;;4917514;29;20986;-89
2021/05/05 06:30:37;;;;;;;2.70;1.63;;;25.50;51.60;;;;;;4917228;29;20498;-89
2021/05/05 06:33:04;;;;;;;2.43;1.57;;;25.50;51.50;;;;;;4917269;29;20448;-86
2021/05/05 06:35:30;;;;;;;7.80;1.57;;;25.50;51.50;;;;;;4917168;29;20469;-86
2021/05/05 06:37:57;;;;;;;1.70;1.53;;;25.50;51.00;;;;;;4917113;29;20467;-90
2021/05/05 06:40:24;;;;;;;1.57;1.47;;;25.60;51.00;;;;;;4917373;29;20525;-91
2021/05/05 06:42:51;;;;;;;1.30;1.20;;;25.60;51.60;;;;;;4919630;29;20447;-89
2021/05/05 06:45:18;;;;;;;4.43;1.47;;;25.60;51.50;;;;;;4922352;29;20499;-89
2021/05/05 06:47:44;;;;;;;1.40;1.30;;;25.60;51.40;;;;;;4923940;29;20448;-89
2021/05/05 06:50:14;;;;;;;1.40;1.30;;;25.60;51.40;;;;;;4925159;29;20558;-89
2021/05/05 06:52:40;;;;;;;1.63;1.13;;;25.60;51.30;;;;;;4925814;29;20474;-92
2021/05/05 06:55:07;;;;;;;1.23;1.00;;;25.60;51.40;;;;;;4922425;29;21025;-89
2021/05/05 06:57:35;;;;;;;1.60;1.47;;;25.60;51.20;;;;;;4921338;29;20451;-89
2021/05/05 07:00:02;;;;;;;1.40;1.20;;;25.60;51.20;;;;;;4920409;29;20470;-89
2021/05/05 07:02:28;;;;;;;1.20;1.10;;;25.60;51.20;;;;;;4965946;23;20493;-90
2021/05/05 07:07:20;;;;;;;1.63;1.10;;;25.60;51.20;;;;;;4973511;23;20552;-90
2021/05/05 07:09:48;;;;;;;3.10;1.50;;;25.60;51.20;;;;;;4971449;28;20226;-95
2021/05/05 07:12:18;;;;;;;1.30;1.17;;;25.60;51.10;;;;;;4979023;23;20527;-88
2021/05/05 07:17:21;;;;;;;2.00;1.10;;;25.70;51.10;;;;;;4930935;27;20493;-96
2021/05/05 07:19:49;;;;;;;1.50;1.40;;;25.70;51.20;;;;;;4947511;29;20453;-94
2021/05/05 07:22:16;;;;;;;1.63;1.40;;;25.60;51.10;;;;;;4940085;29;20486;-94
2021/05/05 07:24:44;;;;;;;1.20;1.00;;;25.70;51.20;;;;;;4951604;29;20585;-91
2021/05/05 07:27:11;;;;;;;1.37;1.27;;;25.70;51.80;;;;;;4943739;29;20482;-89
2021/05/05 07:29:37;;;;;;;1.50;1.40;;;25.70;51.30;;;;;;4943292;29;20482;-89
2021/05/05 07:32:04;;;;;;;2.77;1.63;;;25.70;51.50;;;;;;4940444;29;20796;-93
2021/05/05 07:34:31;;;;;;;1.13;1.00;;;25.70;51.40;;;;;;4939347;29;20454;-88
2021/05/05 07:37:05;;;;;;;1.50;1.40;;;25.70;51.40;;;;;;4940844;29;20465;-94
2021/05/05 07:40:11;;;;;;;1.67;1.20;;;25.70;51.50;;;;;;5062546;23;21058;-93
2021/05/05 07:48:24;;;;;;;2.10;1.20;;;25.70;51.40;;;;;;4891727;29;20463;-95
2021/05/05 07:50:53;;;;;;;1.67;1.20;;;25.70;51.40;;;;;;4905144;29;20430;-90
2021/05/05 07:53:20;;;;;;;1.33;1.20;;;25.70;51.40;;;;;;4965762;28;20534;-95
2021/05/05 07:55:47;;;;;;;1.47;1.37;;;25.70;51.20;;;;;;4960422;29;20540;-94
2021/05/05 07:58:13;;;;;;;1.80;1.20;;;25.70;51.30;;;;;;4958610;29;20470;-91
2021/05/05 08:00:40;;;;;;;2.20;1.50;;;25.70;51.40;;;;;;4960197;29;20861;-94
2021/05/05 08:03:07;;;;;;;6.30;1.07;;;25.70;51.40;;;;;;4960864;29;20508;-90
2021/05/05 08:05:34;;;;;;;1.43;1.17;;;25.70;51.30;;;;;;4957493;29;20481;-87
2021/05/05 08:08:01;;;;;;;4.13;1.10;;;25.80;51.40;;;;;;4959583;29;20442;-88
2021/05/05 08:10:27;;;;;;;2.23;1.20;;;25.80;51.50;;;;;;4958102;28;20442;-86
2021/05/05 08:12:55;;;;;;;1.13;1.03;;;25.80;51.60;;;;;;4958170;28;20446;-87
2021/05/05 08:15:21;;;;;;;1.60;1.50;;;25.80;51.60;;;;;;4958256;28;20468;-89
2021/05/05 08:17:48;;;;;;;2.13;1.00;;;25.80;51.60;;;;;;4959878;29;20500;-96
2021/05/05 08:20:15;;;;;;;1.20;1.00;;;26.00;51.60;;;;;;4962929;28;20453;-94
2021/05/05 08:22:41;;;;;;;1.20;1.03;;;25.90;51.60;;;;;;4958322;29;20458;-94
2021/05/05 08:25:09;;;;;;;2.20;1.00;;;25.80;51.60;;;;;;4958984;28;20560;-94
2021/05/05 08:27:36;;;;;;;1.30;1.20;;;25.90;51.70;;;;;;4957962;29;20448;-92
2021/05/05 08:30:03;;;;;;;1.30;1.07;;;26.00;51.70;;;;;;4958208;29;20454;-90
2021/05/05 08:32:29;;;;;;;1.70;1.07;;;26.00;51.80;;;;;;4973641;23;20487;-91
2021/05/05 08:34:56;;;;;;;1.20;1.07;;;25.90;51.80;;;;;;4986807;28;20464;-91
2021/05/05 08:37:23;;;;;;;2.07;1.30;;;26.00;51.80;;;;;;4981315;28;20913;-90
2021/05/05 08:39:49;;;;;;;2.77;1.30;;;26.00;51.80;;;;;;4979729;28;20437;-92
2021/05/05 08:42:30;;;;;;;1.10;1.00;;;25.90;51.80;;;;;;4964917;28;20456;-92
2021/05/05 08:44:57;;;;;;;1.50;1.00;;;25.90;51.80;;;;;;4957704;29;20496;-91
2021/05/05 08:47:23;;;;;;;2.60;1.60;;;25.90;51.80;;;;;;4980729;28;20460;-92
2021/05/05 08:49:50;;;;;;;1.37;1.17;;;26.00;51.70;;;;;;4987802;28;20529;-92
2021/05/05 08:52:16;;;;;;;1.40;1.10;;;26.00;51.80;;;;;;4976676;28;20548;-93
2021/05/05 08:54:43;;;;;;;1.40;1.10;;;26.00;51.80;;;;;;4971333;28;20521;-91
2021/05/05 08:57:09;;;;;;;2.73;1.17;;;26.10;51.90;;;;;;4972614;28;20486;-91
2021/05/05 08:59:38;;;;;;;2.20;1.13;;;26.20;51.90;;;;;;4968487;28;20489;-92
2021/05/05 09:02:04;;;;;;;1.10;0.90;;;26.10;51.90;;;;;;4971977;28;20526;-93
2021/05/05 09:04:32;;;;;;;1.40;1.30;;;26.10;51.90;;;;;;4977335;28;20937;-92
2021/05/05 09:07:00;;;;;;;1.10;1.00;;;26.10;52.20;;;;;;4976466;28;20467;-92
2021/05/05 09:09:40;;;;;;;1.60;1.20;;;26.10;52.00;;;;;;4978381;28;20450;-92
2021/05/05 09:12:25;;;;;;;1.40;1.17;;;26.10;52.00;;;;;;4976046;28;20961;-92
2021/05/05 09:14:54;;;;;;;1.20;1.10;;;26.10;52.00;;;;;;4976185;28;20452;-92
2021/05/05 09:17:23;;;;;;;1.33;1.10;;;26.10;52.00;;;;;;4975858;28;20497;-91
2021/05/05 09:19:49;;;;;;;1.27;1.00;;;26.10;52.00;;;;;;4975707;28;20537;-90
2021/05/05 09:22:34;;;;;;;1.83;1.10;;;26.10;52.00;;;;;;4975644;28;20442;-89
2021/05/05 09:25:00;;;;;;;1.10;0.90;;;26.20;52.00;;;;;;4975521;28;20569;-90
2021/05/05 09:27:28;;;;;;;1.30;1.10;;;26.20;52.00;;;;;;4977020;28;20446;-91
2021/05/05 09:29:55;;;;;;;1.30;1.03;;;26.20;51.90;;;;;;4976058;28;20448;-94
2021/05/05 09:32:22;;;;;;;1.20;1.00;;;26.10;52.30;;;;;;4975721;28;20528;-92
2021/05/05 09:34:56;;;;;;;1.97;1.20;;;26.20;52.00;;;;;;4977356;28;20767;-93
2021/05/05 09:37:24;;;;;;;2.10;1.00;;;26.20;52.00;;;;;;4975708;28;20479;-92
2021/05/05 09:39:59;;;;;;;1.47;1.20;;;26.20;51.90;;;;;;4975612;28;20456;-92
2021/05/05 09:42:30;;;;;;;1.27;1.00;;;26.20;51.90;;;;;;4977017;28;20535;-90
2021/05/05 09:45:00;;;;;;;1.90;1.10;;;26.20;51.90;;;;;;4975559;28;20842;-92
2021/05/05 09:47:46;;;;;;;1.20;1.10;;;26.30;52.00;;;;;;4976228;28;20441;-91
2021/05/05 09:50:28;;;;;;;1.67;1.40;;;26.20;52.00;;;;;;4984134;23;20433;-89
2021/05/05 09:53:13;;;;;;;1.30;1.20;;;26.20;51.90;;;;;;4960616;29;20446;-93
2021/05/05 09:55:40;;;;;;;1.03;0.90;;;26.20;51.90;;;;;;4956068;29;20461;-87
2021/05/05 09:58:21;;;;;;;1.20;0.90;;;26.10;51.70;;;;;;4955597;28;20954;-88
2021/05/05 10:01:12;;;;;;;1.20;1.00;;;26.10;51.70;;;;;;4955602;29;20496;-88
2021/05/05 10:03:40;;;;;;;1.63;1.17;;;26.20;51.80;;;;;;4955649;28;20963;-88
2021/05/05 10:06:26;;;;;;;1.20;1.10;;;26.20;51.80;;;;;;4956060;28;20578;-88
2021/05/05 10:08:54;;;;;;;1.10;0.97;;;26.20;51.90;;;;;;4955690;29;20443;-88
2021/05/05 10:11:22;;;;;;;1.67;1.00;;;26.30;52.00;;;;;;4955661;29;20831;-88
2021/05/05 10:13:53;;;;;;;1.40;1.07;;;26.20;51.90;;;;;;4955506;29;20442;-88
2021/05/05 10:16:22;;;;;;;1.07;0.87;;;26.20;52.00;;;;;;4955663;28;20443;-88
2021/05/05 10:18:49;;;;;;;1.10;0.90;;;26.30;52.00;;;;;;4955737;28;20807;-88
2021/05/05 10:21:18;;;;;;;1.30;0.90;;;26.30;52.00;;;;;;4955757;28;20999;-88
2021/05/05 10:23:45;;;;;;;1.10;1.00;;;26.30;51.90;;;;;;4955621;29;20442;-88
2021/05/05 10:26:12;;;;;;;1.73;1.20;;;26.30;52.00;;;;;;4955789;29;20494;-88
2021/05/05 10:28:39;;;;;;;1.40;1.30;;;26.20;52.20;;;;;;4955313;28;20991;-88
2021/05/05 10:31:09;;;;;;;1.47;0.90;;;26.20;52.10;;;;;;4955304;28;20941;-88
2021/05/05 10:33:40;;;;;;;1.27;1.13;;;26.30;52.00;;;;;;4955933;29;20502;-89
2021/05/05 10:36:29;;;;;;;1.00;0.87;;;26.30;52.00;;;;;;4955038;28;20530;-88
2021/05/05 10:38:56;;;;;;;1.37;0.90;;;26.30;51.90;;;;;;4955126;28;20455;-86
2021/05/05 10:41:23;;;;;;;1.30;1.10;;;26.30;52.60;;;;;;4955200;28;20944;-89
2021/05/05 10:43:51;;;;;;;1.30;1.00;;;26.30;52.00;;;;;;4957866;28;20538;-89
2021/05/05 10:46:25;;;;;;;2.80;1.00;;;26.30;52.00;;;;;;4959467;29;20511;-88
2021/05/05 10:49:10;;;;;;;1.67;0.93;;;26.30;52.00;;;;;;4959122;29;20528;-89
2021/05/05 10:51:59;;;;;;;1.20;0.80;;;26.20;52.10;;;;;;4958963;29;20478;-87
2021/05/05 10:54:53;;;;;;;1.10;0.90;;;26.30;52.00;;;;;;4959462;28;20529;-87
2021/05/05 10:57:21;;;;;;;1.20;1.10;;;26.30;52.00;;;;;;4959584;29;20434;-87
2021/05/05 11:00:11;;;;;;;2.57;1.10;;;26.30;52.00;;;;;;4958781;28;20967;-89
2021/05/05 11:02:49;;;;;;;1.10;0.90;;;26.30;51.90;;;;;;4959039;29;20545;-88
2021/05/05 11:05:18;;;;;;;1.10;0.87;;;26.30;52.00;;;;;;4959536;29;20572;-89
2021/05/05 11:07:49;;;;;;;1.30;1.10;;;26.30;52.20;;;;;;4958946;28;20940;-89
2021/05/05 11:10:51;;;;;;;1.00;0.80;;;26.20;52.30;;;;;;4959014;29;20450;-89
2021/05/05 11:13:39;;;;;;;1.37;0.83;;;26.20;52.20;;;;;;4958812;29;20524;-90
2021/05/05 11:16:06;;;;;;;1.10;0.80;;;26.30;52.10;;;;;;4958768;28;20468;-89
2021/05/05 11:18:48;;;;;;;1.20;0.90;;;26.30;52.10;;;;;;4958673;28;20450;-89
2021/05/05 11:21:45;;;;;;;1.27;1.07;;;26.40;52.10;;;;;;4958456;28;20537;-89
2021/05/05 11:24:34;;;;;;;1.20;1.00;;;26.40;52.00;;;;;;4880983;29;20449;-89
2021/05/05 11:27:02;;;;;;;1.20;1.00;;;26.40;52.00;;;;;;4952479;28;20450;-89
2021/05/05 11:29:40;;;;;;;1.20;0.90;;;26.40;52.00;;;;;;4958259;29;21045;-88
2021/05/05 11:32:14;;;;;;;1.20;0.90;;;26.40;52.00;;;;;;4958993;29;20916;-92
2021/05/05 11:34:42;;;;;;;1.50;0.90;;;26.40;52.00;;;;;;4958486;28;20852;-85
2021/05/05 11:37:13;;;;;;;1.83;1.00;;;26.40;51.50;;;;;;4959461;28;20463;-86
2021/05/05 11:39:41;;;;;;;1.20;1.00;;;26.30;51.70;;;;;;4965846;29;20441;-86
2021/05/05 11:42:11;;;;;;;1.50;1.40;;;26.40;51.90;;;;;;4957883;28;20454;-86
2021/05/05 11:44:42;;;;;;;1.07;0.80;;;26.40;51.90;;;;;;4958085;28;20451;-86
2021/05/05 11:47:10;;;;;;;2.60;0.93;;;26.40;51.90;;;;;;4958212;28;20533;-86
2021/05/05 11:49:38;;;;;;;1.20;1.00;;;26.40;51.90;;;;;;4957977;29;20459;-86
2021/05/05 11:52:26;;;;;;;2.50;1.00;;;26.40;51.90;;;;;;4957761;28;20474;-86
2021/05/05 11:54:56;;;;;;;1.30;0.70;;;26.40;52.00;;;;;;4957071;28;20440;-86
2021/05/05 11:57:23;;;;;;;1.87;1.23;;;26.40;52.10;;;;;;4958118;28;20431;-86
2021/05/05 11:59:49;;;;;;;2.33;1.53;;;26.40;52.20;;;;;;4957800;29;20447;-86
2021/05/05 12:02:18;;;;;;;1.30;0.80;;;26.30;52.30;;;;;;4957877;28;20450;-86
2021/05/05 12:04:45;;;;;;;1.20;0.70;;;26.40;52.30;;;;;;4957630;28;20450;-86
2021/05/05 12:07:15;;;;;;;1.20;0.90;;;26.40;52.30;;;;;;4957750;29;20477;-86
2021/05/05 12:09:42;;;;;;;1.13;0.83;;;26.40;52.30;;;;;;4958179;28;20451;-88
2021/05/05 12:12:23;;;;;;;3.43;0.80;;;26.40;52.30;;;;;;4957727;28;20451;-87
2021/05/05 12:17:56;;;;;;;1.33;0.87;;;26.40;51.80;;;;;;4959813;29;20969;-88
2021/05/05 12:20:23;;;;;;;2.07;0.93;;;26.40;52.20;;;;;;4957903;28;20536;-88
2021/05/05 12:22:53;;;;;;;4.33;0.90;;;26.40;52.10;;;;;;4957560;28;20952;-88
2021/05/05 12:25:23;;;;;;;1.77;1.00;;;26.50;52.10;;;;;;4957468;28;20473;-89
2021/05/05 12:28:05;;;;;;;6.73;1.00;;;26.50;51.80;;;;;;4957497;28;20447;-84
2021/05/05 12:30:53;;;;;;;2.20;0.90;;;26.50;50.90;;;;;;4957342;29;20506;-86
2021/05/05 12:33:31;;;;;;;2.70;1.07;;;26.50;50.70;;;;;;4957500;28;20433;-83
2021/05/05 12:35:58;;;;;;;1.50;1.00;;;26.50;51.30;;;;;;4956995;29;20865;-83
2021/05/05 12:38:24;;;;;;;1.20;0.97;;;26.50;51.10;;;;;;4957142;28;20478;-82
2021/05/05 12:41:01;;;;;;;5.67;1.60;;;26.60;51.20;;;;;;4956935;28;20443;-82
2021/05/05 12:43:28;;;;;;;3.33;1.00;;;26.60;51.00;;;;;;4957445;29;20443;-87
2021/05/05 12:45:57;;;;;;;3.83;1.00;;;26.60;50.60;;;;;;4957008;28;20490;-87
2021/05/05 12:48:26;;;;;;;2.00;1.00;;;26.60;51.20;;;;;;4957012;28;20446;-86
2021/05/05 12:50:53;;;;;;;1.30;1.00;;;26.60;51.30;;;;;;4956544;28;20625;-85
2021/05/05 12:53:20;;;;;;;1.30;0.80;;;26.60;51.40;;;;;;4956846;28;20937;-86
2021/05/05 12:55:58;;;;;;;2.70;0.80;;;26.60;51.40;;;;;;4956651;28;20443;-84
2021/05/05 12:58:24;;;;;;;3.00;1.10;;;26.70;51.50;;;;;;4956811;29;20466;-85
2021/05/05 13:00:52;;;;;;;1.40;1.20;;;26.70;51.50;;;;;;4956717;29;20450;-85
2021/05/05 13:03:20;;;;;;;1.10;1.00;;;26.70;51.60;;;;;;4956603;29;20458;-85
2021/05/05 13:05:58;;;;;;;1.37;1.03;;;26.70;51.60;;;;;;4956151;28;20537;-84
2021/05/05 13:08:37;;;;;;;2.90;1.03;;;26.70;51.60;;;;;;4956657;28;20593;-85
2021/05/05 13:11:09;;;;;;;1.87;1.20;;;26.70;51.60;;;;;;4956600;28;20962;-84
2021/05/05 13:13:59;;;;;;;2.40;1.33;;;26.70;51.70;;;;;;4956475;29;20474;-87
2021/05/05 13:16:49;;;;;;;1.50;1.00;;;26.70;51.70;;;;;;4952489;29;20460;-87
2021/05/05 13:19:38;;;;;;;1.43;0.80;;;26.70;51.70;;;;;;4956379;29;20930;-87
2021/05/05 13:30:28;;;;;;;1.47;1.10;;;26.60;52.40;;;;;;4957240;28;20432;-88
2021/05/05 13:32:57;;;;;;;2.00;1.10;;;26.60;51.80;;;;;;4956438;28;20452;-88
2021/05/05 13:35:30;;;;;;;3.97;1.00;;;26.70;52.00;;;;;;4956332;29;20477;-88
2021/05/05 13:38:02;;;;;;;4.70;1.00;;;26.70;52.00;;;;;;4956573;29;20450;-87
2021/05/05 13:40:32;;;;;;;2.90;1.27;;;26.70;51.90;;;;;;4955794;28;20803;-90
2021/05/05 13:43:09;;;;;;;2.13;0.90;;;26.70;51.90;;;;;;4956191;28;20807;-88
2021/05/05 13:45:39;;;;;;;5.50;1.63;;;26.70;52.00;;;;;;4956891;29;20865;-88
2021/05/05 13:51:00;;;;;;;1.17;1.00;;;26.70;52.00;;;;;;4910963;29;20475;-88
2021/05/05 13:53:27;;;;;;;1.83;0.90;;;26.70;52.00;;;;;;4956568;29;20597;-88
2021/05/05 13:55:53;;;;;;;5.80;1.23;;;26.70;52.10;;;;;;4957343;29;20529;-88
2021/05/05 13:58:21;;;;;;;2.80;1.00;;;26.70;52.10;;;;;;4956439;29;20816;-88
2021/05/05 14:00:48;;;;;;;2.23;0.80;;;26.70;52.10;;;;;;4957522;28;20438;-88
2021/05/05 14:03:14;;;;;;;2.13;0.90;;;26.80;52.20;;;;;;4955915;28;20447;-88
2021/05/05 14:05:43;;;;;;;3.00;1.10;;;26.90;52.30;;;;;;4956049;29;20501;-88
2021/05/05 14:08:10;;;;;;;1.40;0.80;;;27.00;52.20;;;;;;4956602;29;20454;-88
2021/05/05 14:10:36;;;;;;;2.37;0.90;;;26.80;52.10;;;;;;4956217;28;20441;-88
2021/05/05 14:13:03;;;;;;;1.67;1.00;;;26.60;52.00;;;;;;4956211;29;20450;-88
2021/05/05 14:15:34;;;;;;;3.20;0.93;;;27.00;52.20;;;;;;4956161;29;20474;-88
2021/05/05 14:18:01;;;;;;;1.07;0.90;;;26.90;52.20;;;;;;4955985;28;20447;-88
2021/05/05 14:20:28;;;;;;;1.40;1.07;;;26.90;52.20;;;;;;4956449;29;20450;-87
2021/05/05 14:22:55;;;;;;;2.50;0.97;;;26.80;52.20;;;;;;4956086;28;20453;-88
2021/05/05 14:25:22;;;;;;;1.10;0.70;;;26.80;52.20;;;;;;4955716;28;20489;-87
2021/05/05 14:27:51;;;;;;;2.50;0.80;;;26.90;52.20;;;;;;4956515;29;20461;-88
2021/05/05 14:30:19;;;;;;;2.40;0.93;;;26.90;52.20;;;;;;4956513;29;20464;-87
2021/05/05 14:32:46;;;;;;;2.07;1.10;;;26.80;52.20;;;;;;4955888;29;20447;-88
2021/05/05 14:35:14;;;;;;;1.37;0.80;;;26.80;52.10;;;;;;4955745;29;20528;-88
2021/05/05 14:37:41;;;;;;;2.90;1.10;;;26.80;51.20;;;;;;4955748;29;20457;-88
2021/05/05 14:40:09;;;;;;;2.90;1.60;;;26.80;50.40;;;;;;4958889;28;20510;-88
2021/05/05 14:42:38;;;;;;;13.90;6.57;;;26.80;49.80;;;;;;4955527;29;20521;-87
2021/05/05 14:45:21;;;;;;;67.53;32.40;;;26.70;49.40;;;;;;4955667;28;20446;-87
2021/05/05 14:48:03;;;;;;;50.00;25.07;;;26.70;49.40;;;;;;4955269;28;20457;-88
2021/05/05 14:50:30;;;;;;;21.83;10.97;;;26.70;47.40;;;;;;4962160;28;20485;-93
2021/05/05 14:52:56;;;;;;;19.87;8.20;;;26.60;46.20;;;;;;4964821;29;20478;-92
2021/05/05 14:55:26;;;;;;;13.53;7.00;;;26.40;45.70;;;;;;4964124;28;20529;-93
2021/05/05 14:57:59;;;;;;;17.57;7.13;;;26.40;45.70;;;;;;4963687;28;20481;-90
2021/05/05 15:00:26;;;;;;;11.77;4.10;;;26.20;45.30;;;;;;4962232;28;20454;-92
2021/05/05 15:02:56;;;;;;;7.60;4.30;;;26.20;45.10;;;;;;4963001;28;20496;-93
2021/05/05 15:05:23;;;;;;;5.87;4.13;;;26.10;45.00;;;;;;4958504;28;20486;-91
2021/05/05 15:07:53;;;;;;;11.20;5.07;;;26.00;45.00;;;;;;4964507;28;20489;-89
2021/05/05 15:10:33;;;;;;;13.17;5.00;;;25.90;45.90;;;;;;4962534;28;20445;-94
2021/05/05 15:13:01;;;;;;;8.80;3.60;;;26.00;46.70;;;;;;4960489;29;20437;-94
2021/05/05 15:29:30;;;;;;;10.73;5.23;;;26.30;48.60;;;;;;4916164;29;20464;-86
2021/05/05 15:37:41;;;;;;;7.67;4.10;;;26.40;48.90;;;;;;4923668;29;20465;-86
2021/05/05 15:40:17;;;;;;;8.30;4.17;;;26.40;48.90;;;;;;4958168;29;20881;-85
2021/05/05 15:42:43;;;;;;;6.67;4.00;;;26.50;49.10;;;;;;4958277;28;20460;-86
2021/05/05 15:45:12;;;;;;;11.37;4.00;;;26.50;49.10;;;;;;4958161;28;20460;-86
2021/05/05 15:47:38;;;;;;;7.67;3.53;;;26.50;49.20;;;;;;4958920;29;20465;-86
2021/05/05 15:50:10;;;;;;;7.50;4.50;;;26.60;49.40;;;;;;4957874;28;20454;-89
2021/05/05 15:52:40;;;;;;;9.23;3.43;;;26.60;49.40;;;;;;4960041;28;20939;-86
2021/05/05 15:55:08;;;;;;;6.43;3.90;;;26.60;49.50;;;;;;4959337;29;20450;-88
2021/05/05 15:57:37;;;;;;;6.90;3.17;;;26.60;49.50;;;;;;4957896;28;20891;-86
2021/05/05 16:00:12;;;;;;;6.97;3.80;;;26.70;49.60;;;;;;4958041;28;20464;-86
2021/05/05 16:16:16;;;;;;;5.07;3.23;;;26.70;49.80;;;;;;4954436;29;20510;-86
2021/05/05 16:18:48;;;;;;;5.37;3.10;;;26.70;49.80;;;;;;4957628;28;20434;-88
2021/05/05 16:21:25;;;;;;;6.03;3.00;;;26.70;50.50;;;;;;4957864;29;20443;-88
2021/05/05 16:24:23;;;;;;;7.17;3.50;;;26.70;49.90;;;;;;4957726;29;20441;-85
2021/05/05 16:26:53;;;;;;;9.57;3.03;;;26.80;50.00;;;;;;4957667;29;20545;-88
2021/05/05 16:48:49;;;;;;;4.07;3.10;;;26.80;50.60;;;;;;4879154;29;20495;-87
2021/05/05 16:51:30;;;;;;;4.90;2.40;;;26.80;50.60;;;;;;4944616;28;20532;-87
2021/05/05 16:54:11;;;;;;;4.27;2.90;;;26.80;50.70;;;;;;4957828;29;20447;-86
2021/05/05 16:56:42;;;;;;;3.70;2.10;;;26.80;50.60;;;;;;4957109;28;20450;-87
2021/05/05 16:59:40;;;;;;;5.90;3.13;;;26.80;50.50;;;;;;4956678;29;20442;-88
2021/05/05 17:07:47;;;;;;;4.97;2.63;;;27.00;50.40;;;;;;4956581;29;20410;-87
2021/05/05 17:10:17;;;;;;;4.50;2.57;;;26.80;50.50;;;;;;4956436;29;20449;-87
2021/05/05 17:12:45;;;;;;;2.80;2.13;;;27.00;50.40;;;;;;4956765;28;20457;-87
2021/05/05 17:15:15;;;;;;;5.97;2.07;;;26.90;50.10;;;;;;4956433;28;20450;-87
2021/05/05 17:17:48;;;;;;;3.33;2.20;;;26.90;50.00;;;;;;4956505;28;20444;-87
2021/05/05 17:20:21;;;;;;;2.53;2.00;;;26.90;50.00;;;;;;4956528;28;20848;-87
2021/05/05 17:22:55;;;;;;;3.73;2.37;;;26.90;50.00;;;;;;4956492;29;20458;-87
2021/05/05 17:25:25;;;;;;;4.97;2.33;;;26.90;50.00;;;;;;4956478;29;20570;-85
2021/05/05 17:27:57;;;;;;;4.50;1.77;;;26.80;49.80;;;;;;4956396;28;20446;-86
2021/05/05 17:39:04;;;;;;;3.20;1.93;;;26.90;49.80;;;;;;4956107;28;20969;-87
2021/05/05 17:44:44;;;;;;;5.40;2.13;;;26.80;49.60;;;;;;4956027;28;20926;-86
2021/05/05 18:12:21;;;;;;;3.87;1.90;;;26.60;49.80;;;;;;4955532;28;20422;-87
2021/05/05 18:14:54;;;;;;;4.17;2.70;;;26.60;49.70;;;;;;4955813;29;20488;-84
2021/05/05 18:17:30;;;;;;;3.70;1.93;;;26.60;50.10;;;;;;4955638;28;20801;-84
2021/05/05 18:19:59;;;;;;;2.80;1.77;;;26.60;49.70;;;;;;4956037;28;20486;-85
2021/05/05 18:22:28;;;;;;;5.70;1.90;;;26.70;49.40;;;;;;4955524;29;20454;-82
2021/05/05 18:27:40;;;;;;;3.43;1.67;;;26.70;49.40;;;;;;4951791;28;20981;-84
2021/05/05 18:30:10;;;;;;;5.23;2.20;;;26.70;49.60;;;;;;4955685;29;20453;-84
2021/05/05 18:32:37;;;;;;;2.10;1.30;;;26.70;49.60;;;;;;4955495;28;20463;-83
2021/05/05 18:35:04;;;;;;;10.10;2.17;;;26.70;49.60;;;;;;4955318;29;20528;-85
2021/05/05 18:37:33;;;;;;;4.07;2.07;;;26.70;49.80;;;;;;4955427;29;20447;-85
2021/05/05 18:40:03;;;;;;;2.93;1.70;;;26.70;49.80;;;;;;4955237;28;20448;-86
2021/05/05 18:42:32;;;;;;;5.30;2.13;;;26.70;49.60;;;;;;4955008;28;20446;-86
2021/05/05 19:07:29;;;;;;;3.90;1.90;;;26.60;50.60;;;;;;4958844;28;20494;-84
2021/05/05 19:13:07;;;;;;;2.90;1.53;;;26.70;50.30;;;;;;4958768;29;20434;-85
2021/05/05 19:27:22;;;;;;;1.90;1.33;;;26.70;50.60;;;;;;4958575;29;20830;-85
2021/05/05 19:50:11;;;;;;;2.83;1.23;;;26.60;50.60;;;;;;4958635;28;20432;-86
2021/05/05 20:42:35;;;;;;;2.27;1.23;;;26.60;50.70;;;;;;4943787;28;20439;-86
2021/05/05 20:48:38;;;;;;;1.50;1.13;;;26.60;50.70;;;;;;4879370;29;20888;-88
2021/05/05 21:10:43;;;;;;;3.17;1.70;;;26.50;50.40;;;;;;4878756;29;20465;-86
2021/05/05 21:19:16;;;;;;;1.70;1.33;;;26.40;50.40;;;;;;4935557;29;20948;-86
2021/05/05 21:22:02;;;;;;;2.17;1.63;;;26.40;50.40;;;;;;4936790;29;20450;-86
2021/05/05 22:00:48;;;;;;;1.60;1.40;;;26.10;50.10;;;;;;4956037;28;20860;-86
2021/05/05 22:53:21;;;;;;;1.53;1.43;;;25.90;50.20;;;;;;4958958;29;20829;-86
2021/05/05 23:10:07;;;;;;;1.67;1.07;;;25.80;50.30;;;;;;4958905;28;20481;-86
2021/05/05 23:15:30;;;;;;;1.30;1.20;;;25.80;50.30;;;;;;4957878;28;20446;-86
2021/05/05 23:26:16;;;;;;;1.50;1.20;;;25.70;50.20;;;;;;4958472;28;20560;-86
2021/05/05 23:28:47;;;;;;;1.40;1.30;;;25.80;50.30;;;;;;4958839;28;20881;-86
2021/05/05 23:40:09;;;;;;;1.57;1.10;;;25.70;50.50;;;;;;4906991;29;20441;-86
2021/05/05 23:56:35;;;;;;;1.50;1.10;;;25.70;50.70;;;;;;4956718;29;20457;-86
